Terminal Aerodrome Forecast
Issued by NWS

Home | Current Version | Previous Version | Text Only | Print | Product List | Glossary On
Versions: 1 2 3 4 5 6 7 8 9 10 11 12 13 14 15
199
FTUS41 KGYX 171731
TAFRKD
TAF
KRKD 171731Z 1718/1818 03008KT P6SM FEW250
     FM180500 07010KT 4SM -SNRA OVC008
     FM180900 07011KT 2SM -RA OVC005
     FM181600 07012KT 2SM BR OVC006=

USA.gov is the U.S. government's official web portal to all federal, state and local government web resources and services.